KWMC Airport (Winnemucca Muni) Information

FAA: WMC - ICAO: KWMC

KWMC Airport Location

State Nevada
County Humboldt
City Winnemucca
KWMC Airport is 5 miles southwest of Winnemucca, NV.
Latitude 40-53-47.8000N
Longitude 117-48-21.2000W
Elevation 4,307ft

KWMC Airport METARs

METAR KWMC 182204Z AUTO 16004KT 6SM -RA BR FEW007 BKN016 OVC021 04/02 A2991 RMK AO2 P0000 T00390022 TSNO
Altimeter 29.91"
Temperature 3.9°C (39.0°F)
Wind 160° at 4KT
Clouds few at 700ft broken at 1,600ft overcast at 2,100ft
Visibility 6.0mi
Time observed: 2021-10-18T22:04:00Z

KWMC Airport Details

Status Operational
Activation October 1943
Ownership Public
Usage Public
Chart KLAMATH FALLS
ATC on-site No
Beacon schedule sunset-sunrise
Beacon color clear green

KWMC Airport Contacts

Owner CITY/COUNTY OF WINNEMUCCA
Owner address 90 WEST 4TH STREET, WINNEMUCCA, NV 89445
Owner phone 775-623-6333
Manager ALBERT G. MARQUIS
Manager address 10001 PARK RUN DR., LAS VEGAS, NV 89145
Manager phone 702-942-2127

KWMC Airport (Winnemucca Muni) Radio Frequencies

KWMC (Airport) Radio Frequencies

UNICOM 122.8
Common traffic advisory frequency (CTAF) 122.8